Kooskia, ID (83539)

2:50 PM PDT on August 27, 2014 (GMT -0700)
Ash Street Kamiah | Change Station
CLOSE
Current Station
Personal Weather Station
Location: Kamiah, ID
Elevation: 1224 ft
Nearby Weather Stations

Elev 1224 ft 46.22 °N, 116.03 °W | Updated 21 seconds ago

Clear
Clear
90.0 °F
Feels Like 87 °F
N
0.0
Wind Variable Wind from NW
Gusts 0.0 mph

Today
High -- | Low -- °F
--% Chance of Precip.
Yesterday
High -- | Low -- °F
Precip. -- in
5:57 AM 7:31 PM
Waxing Crescent, 5% visible
Pressure 30.11 in
Visibility 10.0 miles
Clouds Clear
Heat Index 87 °F
Dew Point 48 °F
Humidity 24%
Rainfall 0.00 in
Snow Depth Not available.
UV 7 out of 12
Pollen 7.90 out of 12
Air Quality Not available.
Flu Activity Not available.
METAR KGIC 272135Z AUTO 27009G14KT 260V330 10SM CLR 30/01 A3011 RMK AO1 T03000009

More Conditions Fewer Conditions

Pressure 30.11 in
Visibility 10.0 miles
Clouds Clear
Heat Index 87 °F
Dew Point 48 °F
Humidity 24%
Rainfall 0.00 in
Snow Depth Not available.
UV 7 out of 12
Pollen 7.90 out of 12
Air Quality Not available.
Flu Activity Not available.
METAR KGIC 272135Z AUTO 27009G14KT 260V330 10SM CLR 30/01 A3011 RMK AO1 T03000009

More Conditions Fewer Conditions

10-Day Weather Forecast

Almanac

Astronomy

Aug. 27, 2014 Rise Set
Actual Time 5:57 AM PDT 7:31 PM PDT
Civil Twilight 5:26 AM PDT 8:02 PM PDT
Nautical Twilight 4:48 AM PDT 8:40 PM PDT
Astronomical Twilight 4:06 AM PDT 9:21 PM PDT
Moon 8:07 AM PDT 8:15 PM PDT
Length of Visible Light 14h 36m
Length of Day
13h 33m
Tomorrow will be 3m 6s shorter.
Waxing Crescent, 5% of the Moon is Illuminated
Today
Waxing Crescent
Sep 2
First Quarter
Sep 8
Full
Sep 15
Last Quarter
Sep 24
New

Today's Extremes

State Highs State Lows

Community

WunderPhotos

Upload Photos

1,747,791 photos uploaded!

Nearby

Snow Depth

Station Depth Elevation
Savage Pass 1 in 6170 ft
Mica Creek 0 in 4750 ft
Brundage Reservoir 4 in 6300 ft
Bear Basin 0 in 5350 ft
Lookout 0 in 5140 ft

Earthquake Activity

City Distance Mag. Time & Date
No recent earthquake activity has been reported nearby.
Minimum magnitude displayed is 2.5.

Coastal Water Temperatures

Place Temperature
No Stations Reporting

Nearby Weather Stations